LiveATC.Net - Listen to live air traffic control over the Internet! Contact LiveATC.net for advertising information


ICAO: KCCR  IATA: CCR   Airport: Buchanan Field Airport
City: Concord   State/Province: California
Country: United States   Continent: North America
KCCR METAR Weather: KCCR 011253Z 35003KT 9SM CLR 16/14 A2986 RMK AO2 SLP099 T01610139
KCCR Flight Activity (FlightAware)
KCCR Airport Info   (AirNav) (iFlightPlanner)
KCCR Tower
Feed Status: DOWN
Last heard on: 2014-08-01 11:36:03 (0 days 2 hours 19 minutes ago)
KCCR Tower Audio Archives
FacilityFrequency
Concord Tower119.700


NOTICE

Unauthorized use prohibited. See LiveATC.net Terms of Service


Find LiveATC Audio Streams


Airport/ARTCC Code

Frequency
(e.g., 124.400, 128.75)
Site-wide search

Browse LiveATC Feeds
LiveATC Coverage Map
Top 50 LiveATC Feeds
Bad Weather Areas

LiveATC FAQ
Offer a LiveATC Feed
Contact LiveATC.net
Press Inquiries

LiveATC on iPhone
LiveATC on Android

LiveATC Mobile
(Mobile browser)

ATC Audio Archives
Interesting Recordings

LiveATC Forums


Home Page
About LiveATC.net
Make a Donation
LiveATC Bookstore

Terms of Use
Privacy Policy

ATC/Radar Sites
U.S. ARTCC Freqs
Canadian Air Freqs

AIRMETs/SIGMETs

FAA Airport Status
Nat'l Airspace Status
Arrival Demand Charts


Server Software By:
Icecast.org
Liquidsoap

Please make a donation to help us keep growing!